createdAt,value
2022-12-08T00:00:01.855Z,6.20
2022-12-08T00:02:58.978Z,6.05
2022-12-08T00:06:05.950Z,7.65
2022-12-08T00:09:12.318Z,4.93
2022-12-08T00:12:02.610Z,7.38
2022-12-08T00:14:50.177Z,7.03
2022-12-08T00:17:37.699Z,8.30
2022-12-08T00:20:25.178Z,6.47
2022-12-08T00:23:12.664Z,7.65
2022-12-08T00:26:04.994Z,7.72
2022-12-08T00:28:52.486Z,8.27
2022-12-08T00:31:40.047Z,6.38
2022-12-08T00:34:27.609Z,7.80
2022-12-08T00:37:14.626Z,8.05
2022-12-08T00:40:03.030Z,5.43
2022-12-08T00:42:50.730Z,7.13
2022-12-08T00:45:37.939Z,6.47
2022-12-08T00:48:25.530Z,6.22
2022-12-08T00:51:12.983Z,6.85
2022-12-08T00:54:00.722Z,6.28
2022-12-08T00:56:48.205Z,6.47
2022-12-08T00:59:35.753Z,5.78
2022-12-08T01:02:24.307Z,6.40
2022-12-08T01:05:11.788Z,7.05
2022-12-08T01:07:59.302Z,7.03
2022-12-08T01:10:46.819Z,5.63
2022-12-08T01:13:34.509Z,6.63
2022-12-08T01:16:25.245Z,5.55
2022-12-08T01:19:14.318Z,6.28
2022-12-08T01:22:01.782Z,5.47
2022-12-08T01:24:48.897Z,6.85
2022-12-08T01:27:35.974Z,6.03
2022-12-08T01:30:23.082Z,4.25
2022-12-08T01:33:10.529Z,7.07
2022-12-08T01:36:04.378Z,5.38
2022-12-08T01:38:52.069Z,6.95
2022-12-08T01:41:39.965Z,5.25
2022-12-08T01:44:27.607Z,7.40
2022-12-08T01:47:15.092Z,6.50
2022-12-08T01:50:03.890Z,6.03
2022-12-08T01:52:59.338Z,6.45
2022-12-08T01:55:53.653Z,7.43
2022-12-08T01:58:49.491Z,6.90
2022-12-08T02:01:37.266Z,6.80
2022-12-08T02:04:24.798Z,5.93
2022-12-08T02:07:14.436Z,5.03
2022-12-08T02:10:03.301Z,6.45
2022-12-08T02:12:54.001Z,6.18
2022-12-08T02:16:10.259Z,7.05
2022-12-08T02:19:30.412Z,3.08
2022-12-08T02:22:24.226Z,7.82
2022-12-08T02:25:29.262Z,7.00
2022-12-08T02:28:35.671Z,6.32
2022-12-08T02:31:50.846Z,9.00
2022-12-08T02:34:47.789Z,5.47
2022-12-08T02:37:44.127Z,5.95
2022-12-08T02:41:03.061Z,8.02
2022-12-08T02:44:05.507Z,8.77
2022-12-08T02:47:14.053Z,8.40
2022-12-08T02:50:01.849Z,6.35
2022-12-08T02:52:50.008Z,9.32
2022-12-08T02:56:22.563Z,8.45
2022-12-08T03:00:03.887Z,9.30
2022-12-08T03:03:14.391Z,6.63
2022-12-08T03:06:25.916Z,6.93
2022-12-08T03:09:32.033Z,9.27
2022-12-08T03:12:47.903Z,8.77
2022-12-08T03:15:37.281Z,8.23
2022-12-08T03:18:31.276Z,8.70
2022-12-08T03:21:20.903Z,9.85
2022-12-08T03:24:10.708Z,9.90
2022-12-08T03:27:04.940Z,10.10
2022-12-08T03:29:54.113Z,10.95
2022-12-08T03:32:48.290Z,11.73
2022-12-08T03:35:39.221Z,10.48
2022-12-08T03:38:26.817Z,11.27
2022-12-08T03:41:20.873Z,9.50
2022-12-08T03:44:08.395Z,10.13
2022-12-08T03:46:55.884Z,11.48
2022-12-08T03:49:43.409Z,8.52
2022-12-08T03:52:30.955Z,11.48
2022-12-08T03:55:18.603Z,9.35
2022-12-08T03:58:06.085Z,11.68
2022-12-08T04:00:53.580Z,11.18
2022-12-08T04:03:41.131Z,11.57
2022-12-08T04:06:28.776Z,9.00
2022-12-08T04:09:16.610Z,12.75
2022-12-08T04:12:04.284Z,11.32
2022-12-08T04:14:51.918Z,8.20
2022-12-08T04:17:39.502Z,12.75
2022-12-08T04:20:27.076Z,10.43
2022-12-08T04:23:14.667Z,13.32
2022-12-08T04:26:02.271Z,14.23
2022-12-08T04:28:49.771Z,10.52
2022-12-08T04:31:37.062Z,14.43
2022-12-08T04:34:24.655Z,13.93
2022-12-08T04:37:12.172Z,13.32
2022-12-08T04:39:59.659Z,18.33
2022-12-08T04:42:47.213Z,18.10
2022-12-08T04:45:35.107Z,18.60
2022-12-08T04:48:22.699Z,16.75
2022-12-08T04:51:16.875Z,15.38
2022-12-08T04:54:04.426Z,19.08
2022-12-08T04:56:51.893Z,18.50
2022-12-08T04:59:39.405Z,18.05
2022-12-08T05:02:26.918Z,17.27
2022-12-08T05:05:14.413Z,12.90
2022-12-08T05:08:01.984Z,16.15
2022-12-08T05:10:49.485Z,16.02
2022-12-08T05:13:37.563Z,14.80
2022-12-08T05:16:25.114Z,13.68
2022-12-08T05:19:12.886Z,36.35
2022-12-08T05:22:00.542Z,16.00
2022-12-08T05:24:48.068Z,18.80
2022-12-08T05:27:35.800Z,24.27
2022-12-08T05:30:23.323Z,15.10
2022-12-08T05:33:10.967Z,23.48
2022-12-08T05:35:58.176Z,20.77
2022-12-08T05:38:45.948Z,20.05
2022-12-08T05:41:33.495Z,19.10
2022-12-08T05:44:21.471Z,15.15
2022-12-08T05:47:09.023Z,20.27
2022-12-08T05:49:56.532Z,43.85
2022-12-08T05:52:43.891Z,25.02
2022-12-08T05:55:34.332Z,23.95
2022-12-08T05:58:23.270Z,24.92
2022-12-08T06:01:28.392Z,21.90
2022-12-08T06:04:15.985Z,26.00
2022-12-08T06:07:03.798Z,21.40
2022-12-08T06:09:51.581Z,20.27
2022-12-08T06:12:39.290Z,19.80
2022-12-08T06:15:27.176Z,19.08
2022-12-08T06:18:15.270Z,21.77
2022-12-08T06:21:07.484Z,21.27
2022-12-08T06:23:55.458Z,21.95
2022-12-08T06:26:43.429Z,21.20
2022-12-08T06:29:31.040Z,17.80
2022-12-08T06:32:20.777Z,20.63
2022-12-08T06:35:12.210Z,21.23
2022-12-08T06:37:59.776Z,22.15
2022-12-08T06:40:56.737Z,19.63
2022-12-08T06:43:45.181Z,19.17
2022-12-08T06:46:32.791Z,19.23
2022-12-08T06:49:20.401Z,19.15
2022-12-08T06:52:07.951Z,17.25
2022-12-08T06:54:55.224Z,15.73
2022-12-08T06:57:42.756Z,17.67
2022-12-08T07:00:29.987Z,17.50
2022-12-08T07:03:17.731Z,17.27
2022-12-08T07:06:05.643Z,15.93
2022-12-08T07:08:53.374Z,14.70
2022-12-08T07:11:40.813Z,15.20
2022-12-08T07:14:28.346Z,15.95
2022-12-08T07:17:16.109Z,15.57
2022-12-08T07:20:04.133Z,11.52
2022-12-08T07:22:52.657Z,13.23
2022-12-08T07:25:39.966Z,13.85
2022-12-08T07:28:27.626Z,13.20
2022-12-08T07:31:21.093Z,13.45
2022-12-08T07:34:08.758Z,13.60
2022-12-08T07:36:56.325Z,10.30
2022-12-08T07:39:44.186Z,13.30
2022-12-08T07:42:32.630Z,13.18
2022-12-08T07:45:20.130Z,13.80
2022-12-08T07:48:07.775Z,13.55
2022-12-08T07:51:01.401Z,13.77
2022-12-08T07:53:53.817Z,15.18
2022-12-08T07:56:41.896Z,14.27
2022-12-08T07:59:29.370Z,13.23
2022-12-08T08:02:24.740Z,14.27
2022-12-08T08:05:13.347Z,14.18
2022-12-08T08:08:01.438Z,14.30
2022-12-08T08:10:48.985Z,13.63
2022-12-08T08:13:37.159Z,13.18
2022-12-08T08:16:24.795Z,15.52
2022-12-08T08:19:12.396Z,13.98
2022-12-08T08:21:59.887Z,14.02
2022-12-08T08:24:47.423Z,14.45
2022-12-08T08:27:34.924Z,14.75
2022-12-08T08:30:22.451Z,16.15
2022-12-08T08:33:09.955Z,11.82
2022-12-08T08:35:57.510Z,11.60
2022-12-08T08:38:45.093Z,14.95
2022-12-08T08:41:32.587Z,15.15
2022-12-08T08:44:20.008Z,12.95
2022-12-08T08:47:07.660Z,14.43
2022-12-08T08:49:55.436Z,14.85
2022-12-08T08:52:42.983Z,14.40
2022-12-08T08:55:30.477Z,13.68
2022-12-08T08:58:18.168Z,12.80
2022-12-08T09:01:05.562Z,11.48
2022-12-08T09:03:53.133Z,14.15
2022-12-08T09:06:40.744Z,12.77
2022-12-08T09:09:28.653Z,12.23
2022-12-08T09:12:16.297Z,12.85
2022-12-08T09:15:03.876Z,11.57
2022-12-08T09:17:51.769Z,9.93
2022-12-08T09:20:38.965Z,11.88
2022-12-08T09:23:29.445Z,9.85
2022-12-08T09:26:22.396Z,10.45
2022-12-08T09:29:10.987Z,9.90
2022-12-08T09:31:58.520Z,9.63
2022-12-08T09:34:51.800Z,9.15
2022-12-08T09:37:39.749Z,9.45
2022-12-08T09:40:27.724Z,9.27
2022-12-08T09:43:27.847Z,10.27
2022-12-08T09:46:17.387Z,9.85
2022-12-08T09:49:06.894Z,9.57
2022-12-08T09:51:54.622Z,8.80
2022-12-08T09:54:42.113Z,9.65
2022-12-08T09:57:31.882Z,9.18
2022-12-08T10:00:19.408Z,8.80
2022-12-08T10:03:16.458Z,9.70
2022-12-08T10:06:41.163Z,10.02
2022-12-08T10:09:43.403Z,10.20
2022-12-08T10:12:49.966Z,9.35
2022-12-08T10:16:01.572Z,10.20
2022-12-08T10:18:57.751Z,9.43
2022-12-08T10:21:45.220Z,8.73
2022-12-08T10:24:42.059Z,9.95
2022-12-08T10:27:29.642Z,9.77
2022-12-08T10:30:18.863Z,9.30
2022-12-08T10:33:06.395Z,9.65
2022-12-08T10:35:58.282Z,10.05
2022-12-08T10:38:45.811Z,10.15
2022-12-08T10:41:33.334Z,10.68
2022-12-08T10:44:21.187Z,9.40
2022-12-08T10:47:13.098Z,6.55
2022-12-08T10:50:22.006Z,5.10
2022-12-08T10:53:09.917Z,4.85
2022-12-08T10:56:03.011Z,2.42
2022-12-08T10:59:06.105Z,2.50
2022-12-08T11:01:56.343Z,2.13
2022-12-08T11:04:44.009Z,1.65
2022-12-08T11:07:31.505Z,2.20
2022-12-08T11:10:20.801Z,1.90
2022-12-08T11:13:23.618Z,2.20
2022-12-08T11:16:16.354Z,2.83
2022-12-08T11:19:07.868Z,2.00
2022-12-08T11:21:55.529Z,2.20
2022-12-08T11:24:43.054Z,2.72
2022-12-08T11:27:32.360Z,2.60
2022-12-08T11:30:24.922Z,3.00
2022-12-08T11:33:22.295Z,2.75
2022-12-08T11:36:13.448Z,2.75
2022-12-08T11:39:04.474Z,2.90
2022-12-08T11:41:54.419Z,2.90
2022-12-08T11:44:49.971Z,3.10
2022-12-08T11:48:05.535Z,3.17
2022-12-08T11:50:53.045Z,3.10
2022-12-08T11:54:18.961Z,2.92
2022-12-08T11:57:12.816Z,3.30
2022-12-08T12:00:01.487Z,3.33
2022-12-08T12:03:06.735Z,3.22
2022-12-08T12:09:41.448Z,3.40
2022-12-08T12:13:06.142Z,3.30
2022-12-08T12:16:08.595Z,3.55
2022-12-08T12:19:18.425Z,4.03
2022-12-08T12:22:17.642Z,5.15
2022-12-08T12:25:06.669Z,6.60
2022-12-08T12:27:59.467Z,5.72
2022-12-08T12:31:06.556Z,5.70
2022-12-08T12:34:03.654Z,5.03
2022-12-08T12:37:14.660Z,4.53
2022-12-08T12:40:23.726Z,4.88
2022-12-08T12:43:11.229Z,4.80
2022-12-08T12:46:23.108Z,4.90
2022-12-08T12:49:55.602Z,5.47
2022-12-08T12:52:43.462Z,4.70
2022-12-08T12:55:58.404Z,5.53
2022-12-08T12:58:45.899Z,5.57
2022-12-08T13:01:42.586Z,5.78
2022-12-08T13:04:54.189Z,5.93
2022-12-08T13:08:21.254Z,5.57
2022-12-08T13:11:10.785Z,5.38
2022-12-08T13:13:58.261Z,5.85
2022-12-08T13:16:45.919Z,5.78
2022-12-08T13:19:35.787Z,5.68
2022-12-08T13:22:53.612Z,4.93
2022-12-08T13:25:41.484Z,5.15
2022-12-08T13:28:30.450Z,5.53
2022-12-08T13:31:37.762Z,5.97
2022-12-08T13:34:46.044Z,5.65
2022-12-08T13:37:55.393Z,5.43
2022-12-08T13:40:43.844Z,5.47
2022-12-08T13:44:20.533Z,5.90
2022-12-08T13:47:32.134Z,6.28
2022-12-08T13:57:09.959Z,4.57
2022-12-08T13:59:53.721Z,4.53
2022-12-08T14:02:48.575Z,4.85
2022-12-08T14:06:11.120Z,3.78
2022-12-08T14:09:02.407Z,4.18
2022-12-08T14:12:06.677Z,4.97
2022-12-08T14:15:06.344Z,4.25
2022-12-08T14:17:56.147Z,5.15
2022-12-08T14:21:18.806Z,5.13
2022-12-08T14:23:50.764Z,5.28
2022-12-08T14:26:38.612Z,4.80
2022-12-08T14:29:40.866Z,4.82
2022-12-08T14:32:31.640Z,4.72
2022-12-08T14:35:19.602Z,5.18
2022-12-08T14:38:13.701Z,5.35
2022-12-08T14:41:01.176Z,4.93
2022-12-08T14:43:58.692Z,4.65
2022-12-08T14:47:10.027Z,5.10
2022-12-08T14:49:58.256Z,4.35
2022-12-08T14:52:45.931Z,4.80
2022-12-08T14:55:37.426Z,5.45
2022-12-08T14:58:31.371Z,5.10
2022-12-08T15:01:23.418Z,4.60
2022-12-08T15:04:14.432Z,5.00
2022-12-08T15:07:20.592Z,5.32
2022-12-08T15:10:16.925Z,5.43
2022-12-08T15:13:20.612Z,4.88
2022-12-08T15:16:36.684Z,5.00
2022-12-08T15:19:32.893Z,4.63
2022-12-08T15:22:22.722Z,5.00
2022-12-08T15:25:13.822Z,5.35
2022-12-08T15:28:02.692Z,5.45
2022-12-08T15:30:51.069Z,5.10
2022-12-08T15:33:38.584Z,5.35
2022-12-08T15:36:26.069Z,5.88
2022-12-08T15:39:35.195Z,5.15
2022-12-08T15:42:22.348Z,5.00
2022-12-08T15:45:14.432Z,5.43
2022-12-08T15:48:01.970Z,5.05
2022-12-08T15:50:49.868Z,5.32
2022-12-08T15:53:37.459Z,5.38
2022-12-08T15:56:27.722Z,5.40
2022-12-08T15:59:18.507Z,5.80
2022-12-08T16:02:06.095Z,6.32
2022-12-08T16:05:40.180Z,5.97
2022-12-08T16:08:07.807Z,6.93
2022-12-08T16:11:56.800Z,6.63
2022-12-08T16:15:39.156Z,6.47
2022-12-08T16:17:39.344Z,6.03
2022-12-08T16:20:43.906Z,6.78
2022-12-08T16:23:42.809Z,6.60
2022-12-08T16:29:39.174Z,6.80
2022-12-08T16:32:27.837Z,6.63
2022-12-08T16:35:15.638Z,7.55
2022-12-08T16:38:03.210Z,7.30
2022-12-08T16:41:08.898Z,7.88
2022-12-08T16:43:56.391Z,7.38
2022-12-08T16:46:43.914Z,7.55
2022-12-08T16:49:31.323Z,7.82
2022-12-08T16:52:18.846Z,10.57
2022-12-08T16:55:11.612Z,7.50
2022-12-08T16:57:59.170Z,7.45
2022-12-08T17:00:47.227Z,7.78
2022-12-08T17:03:34.841Z,7.80
2022-12-08T17:06:22.690Z,8.00
2022-12-08T17:09:10.284Z,8.15
2022-12-08T17:12:03.505Z,7.55
2022-12-08T17:14:51.681Z,7.70
2022-12-08T17:17:39.527Z,8.23
2022-12-08T17:20:28.145Z,7.90
2022-12-08T17:23:15.675Z,7.70
2022-12-08T17:26:03.801Z,8.10
2022-12-08T17:29:00.400Z,12.38
2022-12-08T17:31:48.847Z,9.88
2022-12-08T17:34:36.425Z,8.90
2022-12-08T17:37:23.940Z,9.35
2022-12-08T17:40:11.491Z,8.05
2022-12-08T17:42:59.051Z,8.45
2022-12-08T17:45:48.117Z,7.32
2022-12-08T17:48:35.762Z,8.13
2022-12-08T17:51:23.378Z,8.38
2022-12-08T17:54:10.897Z,8.52
2022-12-08T17:56:58.715Z,17.25
2022-12-08T17:59:46.302Z,8.77
2022-12-08T18:02:35.488Z,8.18
2022-12-08T18:05:23.220Z,10.48
2022-12-08T18:08:11.100Z,8.93
2022-12-08T18:10:58.385Z,9.05
2022-12-08T18:13:46.301Z,9.63
2022-12-08T18:16:33.808Z,14.43
2022-12-08T18:19:22.508Z,10.38
2022-12-08T18:22:10.878Z,11.40
2022-12-08T18:24:58.420Z,11.90
2022-12-08T18:27:45.631Z,32.25
2022-12-08T18:30:33.183Z,13.88
2022-12-08T18:33:20.811Z,9.18
2022-12-08T18:36:10.669Z,24.05
2022-12-08T18:38:58.272Z,17.88
2022-12-08T18:41:45.987Z,11.50
2022-12-08T18:44:33.564Z,10.80
2022-12-08T18:47:21.067Z,12.07
2022-12-08T18:50:09.126Z,11.60
2022-12-08T18:52:56.671Z,11.18
2022-12-08T18:55:46.576Z,11.90
2022-12-08T18:58:34.366Z,11.50
2022-12-08T19:01:21.936Z,12.30
2022-12-08T19:07:18.459Z,12.77
2022-12-08T19:10:06.923Z,13.35
2022-12-08T19:12:54.632Z,14.77
2022-12-08T19:15:42.154Z,15.90
2022-12-08T19:18:29.257Z,17.23
2022-12-08T19:21:16.788Z,17.70
2022-12-08T19:24:04.631Z,17.85
2022-12-08T19:26:52.301Z,17.38
2022-12-08T19:29:39.845Z,18.48
2022-12-08T19:32:27.526Z,18.70
2022-12-08T19:35:15.035Z,17.73
2022-12-08T19:38:02.700Z,19.08
2022-12-08T19:41:08.960Z,18.38
2022-12-08T19:44:15.325Z,18.17
2022-12-08T19:47:02.927Z,17.80
2022-12-08T19:49:50.385Z,18.33
2022-12-08T19:52:37.929Z,18.02
2022-12-08T19:55:25.616Z,20.17
2022-12-08T19:58:13.102Z,18.88
2022-12-08T20:01:00.715Z,19.48
2022-12-08T20:03:48.261Z,18.92
2022-12-08T20:06:35.831Z,18.88
2022-12-08T20:09:24.297Z,18.25
2022-12-08T20:12:12.197Z,18.25
2022-12-08T20:14:59.755Z,18.77
2022-12-08T20:17:47.315Z,21.45
2022-12-08T20:20:34.800Z,20.73
2022-12-08T20:23:22.520Z,20.80
2022-12-08T20:26:12.472Z,21.02
2022-12-08T20:28:59.583Z,20.23
2022-12-08T20:31:47.162Z,20.08
2022-12-08T20:34:35.243Z,19.77
2022-12-08T20:37:22.797Z,20.45
2022-12-08T20:40:10.505Z,20.75
2022-12-08T20:42:58.044Z,18.45
2022-12-08T20:45:45.713Z,18.80
2022-12-08T20:48:33.438Z,19.83
2022-12-08T20:51:21.133Z,20.10
2022-12-08T20:54:09.645Z,18.90
2022-12-08T20:56:57.276Z,16.73
2022-12-08T20:59:44.951Z,17.15
2022-12-08T21:02:32.556Z,16.02
2022-12-08T21:05:20.487Z,16.00
2022-12-08T21:08:07.958Z,15.80
2022-12-08T21:10:56.415Z,15.52
2022-12-08T21:13:44.344Z,53.00
2022-12-08T21:16:32.035Z,21.40
2022-12-08T21:19:20.543Z,34.85
2022-12-08T21:22:08.205Z,25.08
2022-12-08T21:24:55.764Z,32.22
2022-12-08T21:27:43.558Z,25.25
2022-12-08T21:30:31.248Z,19.65
2022-12-08T21:33:18.861Z,19.95
2022-12-08T21:36:12.492Z,22.75
2022-12-08T21:39:04.382Z,19.58
2022-12-08T21:42:10.808Z,24.80
2022-12-08T21:44:58.524Z,18.52
2022-12-08T21:47:47.252Z,23.27
2022-12-08T21:50:34.949Z,14.48
2022-12-08T21:53:25.110Z,14.07
2022-12-08T21:56:12.661Z,14.20
2022-12-08T21:59:00.246Z,14.05
2022-12-08T22:01:47.859Z,12.93
2022-12-08T22:04:35.748Z,14.68
2022-12-08T22:07:23.458Z,13.70
2022-12-08T22:10:11.601Z,13.60
2022-12-08T22:12:59.526Z,14.27
2022-12-08T22:15:47.192Z,14.48
2022-12-08T22:18:35.068Z,15.15
2022-12-08T22:21:23.070Z,15.23
2022-12-08T22:24:10.739Z,16.02
2022-12-08T22:26:58.746Z,15.52
2022-12-08T22:29:47.206Z,16.15
2022-12-08T22:32:35.022Z,15.68
2022-12-08T22:35:22.922Z,16.02
2022-12-08T22:38:10.631Z,14.90
2022-12-08T22:40:58.311Z,17.40
2022-12-08T22:43:46.834Z,16.23
2022-12-08T22:46:34.972Z,17.08
2022-12-08T22:49:24.820Z,18.73
2022-12-08T22:52:12.500Z,80.18
2022-12-08T22:55:00.272Z,33.65
2022-12-08T22:57:47.833Z,32.97
2022-12-08T23:00:35.526Z,20.73
2022-12-08T23:03:23.154Z,19.52
2022-12-08T23:06:16.529Z,19.13
2022-12-08T23:09:04.309Z,17.52
2022-12-08T23:11:52.209Z,17.98
2022-12-08T23:14:39.947Z,18.58
2022-12-08T23:17:27.803Z,17.70
2022-12-08T23:20:15.518Z,18.30
2022-12-08T23:23:03.192Z,16.52
2022-12-08T23:25:50.935Z,17.13
2022-12-08T23:28:38.798Z,18.98
2022-12-08T23:31:26.569Z,20.10
2022-12-08T23:34:14.324Z,20.70
2022-12-08T23:37:01.825Z,21.23
2022-12-08T23:39:49.338Z,20.33
2022-12-08T23:42:37.245Z,20.92
2022-12-08T23:45:24.764Z,19.90
2022-12-08T23:48:12.300Z,19.20
2022-12-08T23:50:59.403Z,19.00
2022-12-08T23:53:46.983Z,19.73
2022-12-08T23:56:34.717Z,18.63
2022-12-08T23:59:22.591Z,21.05
